sensor_id;sensor_type;location;lat;lon;timestamp;P1;durP1;ratioP1;P2;durP2;ratioP2
71080;SDS011;58740;50.672;18.690;2023-10-19T00:00:07;44.40;;;22.20;;
71080;SDS011;58740;50.672;18.690;2023-10-19T00:03:11;49.50;;;23.90;;
71080;SDS011;58740;50.672;18.690;2023-10-19T00:05:45;72.30;;;32.20;;
71080;SDS011;58740;50.672;18.690;2023-10-19T00:08:18;74.00;;;33.90;;
71080;SDS011;58740;50.672;18.690;2023-10-19T00:10:53;101.60;;;44.10;;
71080;SDS011;58740;50.672;18.690;2023-10-19T00:13:33;98.70;;;48.30;;
71080;SDS011;58740;50.672;18.690;2023-10-19T00:16:09;110.80;;;48.30;;
71080;SDS011;58740;50.672;18.690;2023-10-19T00:18:48;96.20;;;42.40;;
71080;SDS011;58740;50.672;18.690;2023-10-19T00:21:22;56.70;;;27.70;;
71080;SDS011;58740;50.672;18.690;2023-10-19T00:23:58;58.00;;;27.60;;
71080;SDS011;58740;50.672;18.690;2023-10-19T00:26:35;60.60;;;29.50;;
71080;SDS011;58740;50.672;18.690;2023-10-19T00:29:10;85.40;;;40.70;;
71080;SDS011;58740;50.672;18.690;2023-10-19T00:32:00;89.60;;;40.70;;
71080;SDS011;58740;50.672;18.690;2023-10-19T00:34:34;62.30;;;30.40;;
71080;SDS011;58740;50.672;18.690;2023-10-19T00:37:09;41.40;;;21.60;;
71080;SDS011;58740;50.672;18.690;2023-10-19T00:39:49;43.70;;;22.10;;
71080;SDS011;58740;50.672;18.690;2023-10-19T00:42:25;59.90;;;28.40;;
71080;SDS011;58740;50.672;18.690;2023-10-19T00:45:01;97.80;;;40.20;;
71080;SDS011;58740;50.672;18.690;2023-10-19T00:47:37;81.90;;;37.30;;
71080;SDS011;58740;50.672;18.690;2023-10-19T00:50:12;63.70;;;27.00;;
71080;SDS011;58740;50.672;18.690;2023-10-19T00:52:47;49.60;;;22.40;;
71080;SDS011;58740;50.672;18.690;2023-10-19T00:55:21;38.20;;;19.00;;
71080;SDS011;58740;50.672;18.690;2023-10-19T00:57:56;40.30;;;18.90;;
71080;SDS011;58740;50.672;18.690;2023-10-19T01:00:34;52.30;;;24.60;;
71080;SDS011;58740;50.672;18.690;2023-10-19T01:03:14;68.40;;;32.70;;
71080;SDS011;58740;50.672;18.690;2023-10-19T01:05:48;75.10;;;35.60;;
71080;SDS011;58740;50.672;18.690;2023-10-19T01:08:21;79.20;;;37.10;;
71080;SDS011;58740;50.672;18.690;2023-10-19T01:10:57;88.30;;;39.00;;
71080;SDS011;58740;50.672;18.690;2023-10-19T01:13:32;77.80;;;34.20;;
71080;SDS011;58740;50.672;18.690;2023-10-19T01:16:05;75.10;;;35.20;;
71080;SDS011;58740;50.672;18.690;2023-10-19T01:18:52;67.50;;;33.80;;
71080;SDS011;58740;50.672;18.690;2023-10-19T01:21:26;58.60;;;30.40;;
71080;SDS011;58740;50.672;18.690;2023-10-19T01:24:09;64.50;;;29.70;;
71080;SDS011;58740;50.672;18.690;2023-10-19T01:26:47;51.80;;;24.10;;
71080;SDS011;58740;50.672;18.690;2023-10-19T01:29:20;52.70;;;25.90;;
71080;SDS011;58740;50.672;18.690;2023-10-19T01:31:57;51.20;;;23.30;;
71080;SDS011;58740;50.672;18.690;2023-10-19T01:34:38;51.20;;;20.70;;
71080;SDS011;58740;50.672;18.690;2023-10-19T01:37:12;48.20;;;24.00;;
71080;SDS011;58740;50.672;18.690;2023-10-19T01:39:45;51.70;;;24.40;;
71080;SDS011;58740;50.672;18.690;2023-10-19T01:42:18;52.90;;;25.20;;
71080;SDS011;58740;50.672;18.690;2023-10-19T01:44:52;42.40;;;21.50;;
71080;SDS011;58740;50.672;18.690;2023-10-19T01:47:25;40.10;;;20.20;;
71080;SDS011;58740;50.672;18.690;2023-10-19T01:49:59;39.50;;;20.30;;
71080;SDS011;58740;50.672;18.690;2023-10-19T01:52:35;39.50;;;18.70;;
71080;SDS011;58740;50.672;18.690;2023-10-19T01:55:10;37.30;;;18.60;;
71080;SDS011;58740;50.672;18.690;2023-10-19T01:57:43;41.00;;;20.60;;
71080;SDS011;58740;50.672;18.690;2023-10-19T02:00:17;43.10;;;18.80;;
71080;SDS011;58740;50.672;18.690;2023-10-19T02:02:53;41.80;;;19.10;;
71080;SDS011;58740;50.672;18.690;2023-10-19T02:05:29;40.00;;;19.40;;
71080;SDS011;58740;50.672;18.690;2023-10-19T02:08:09;35.00;;;17.80;;
71080;SDS011;58740;50.672;18.690;2023-10-19T02:10:47;38.50;;;17.80;;
71080;SDS011;58740;50.672;18.690;2023-10-19T02:13:21;38.80;;;18.40;;
71080;SDS011;58740;50.672;18.690;2023-10-19T02:15:54;39.70;;;17.90;;
71080;SDS011;58740;50.672;18.690;2023-10-19T02:18:27;36.80;;;17.30;;
71080;SDS011;58740;50.672;18.690;2023-10-19T02:21:01;38.60;;;18.20;;
71080;SDS011;58740;50.672;18.690;2023-10-19T02:23:37;41.20;;;19.20;;
71080;SDS011;58740;50.672;18.690;2023-10-19T02:26:12;38.40;;;17.70;;
71080;SDS011;58740;50.672;18.690;2023-10-19T02:28:45;37.00;;;19.30;;
71080;SDS011;58740;50.672;18.690;2023-10-19T02:31:21;37.60;;;18.30;;
71080;SDS011;58740;50.672;18.690;2023-10-19T02:33:56;47.80;;;19.90;;
71080;SDS011;58740;50.672;18.690;2023-10-19T02:36:31;39.80;;;19.00;;
71080;SDS011;58740;50.672;18.690;2023-10-19T02:39:08;41.80;;;18.60;;
71080;SDS011;58740;50.672;18.690;2023-10-19T02:41:46;35.60;;;16.80;;
71080;SDS011;58740;50.672;18.690;2023-10-19T02:44:21;36.60;;;16.40;;
71080;SDS011;58740;50.672;18.690;2023-10-19T02:46:56;32.10;;;16.20;;
71080;SDS011;58740;50.672;18.690;2023-10-19T02:49:31;33.10;;;16.20;;
71080;SDS011;58740;50.672;18.690;2023-10-19T02:52:09;33.40;;;16.00;;
71080;SDS011;58740;50.672;18.690;2023-10-19T02:54:46;38.10;;;17.60;;
71080;SDS011;58740;50.672;18.690;2023-10-19T02:57:20;29.80;;;15.40;;
71080;SDS011;58740;50.672;18.690;2023-10-19T02:59:53;31.50;;;15.10;;
71080;SDS011;58740;50.672;18.690;2023-10-19T03:02:26;35.40;;;15.80;;
71080;SDS011;58740;50.672;18.690;2023-10-19T03:05:01;30.50;;;14.90;;
71080;SDS011;58740;50.672;18.690;2023-10-19T03:07:41;30.90;;;14.60;;
71080;SDS011;58740;50.672;18.690;2023-10-19T03:10:14;27.40;;;14.30;;
71080;SDS011;58740;50.672;18.690;2023-10-19T03:12:54;30.70;;;14.70;;
71080;SDS011;58740;50.672;18.690;2023-10-19T03:15:27;36.20;;;16.90;;
71080;SDS011;58740;50.672;18.690;2023-10-19T03:18:04;27.40;;;16.00;;
71080;SDS011;58740;50.672;18.690;2023-10-19T03:20:38;28.90;;;15.00;;
71080;SDS011;58740;50.672;18.690;2023-10-19T03:23:12;30.40;;;15.40;;
71080;SDS011;58740;50.672;18.690;2023-10-19T03:25:45;29.50;;;15.80;;
71080;SDS011;58740;50.672;18.690;2023-10-19T03:28:49;28.40;;;14.10;;
71080;SDS011;58740;50.672;18.690;2023-10-19T03:31:25;31.40;;;14.80;;
71080;SDS011;58740;50.672;18.690;2023-10-19T03:33:59;31.60;;;16.10;;
71080;SDS011;58740;50.672;18.690;2023-10-19T03:36:35;31.00;;;15.40;;
71080;SDS011;58740;50.672;18.690;2023-10-19T03:39:09;30.00;;;14.90;;
71080;SDS011;58740;50.672;18.690;2023-10-19T03:41:43;29.30;;;15.80;;
71080;SDS011;58740;50.672;18.690;2023-10-19T03:44:17;30.90;;;16.20;;
71080;SDS011;58740;50.672;18.690;2023-10-19T03:46:55;30.30;;;15.40;;
71080;SDS011;58740;50.672;18.690;2023-10-19T03:49:31;33.60;;;16.10;;
71080;SDS011;58740;50.672;18.690;2023-10-19T03:52:08;30.00;;;15.10;;
71080;SDS011;58740;50.672;18.690;2023-10-19T03:54:53;30.40;;;16.50;;
71080;SDS011;58740;50.672;18.690;2023-10-19T03:57:28;34.00;;;16.30;;
71080;SDS011;58740;50.672;18.690;2023-10-19T04:00:01;32.10;;;16.30;;
71080;SDS011;58740;50.672;18.690;2023-10-19T04:02:41;30.50;;;16.50;;
71080;SDS011;58740;50.672;18.690;2023-10-19T04:05:15;28.90;;;16.20;;
71080;SDS011;58740;50.672;18.690;2023-10-19T04:07:51;32.70;;;17.80;;
71080;SDS011;58740;50.672;18.690;2023-10-19T04:10:26;34.50;;;17.10;;
71080;SDS011;58740;50.672;18.690;2023-10-19T04:13:09;37.30;;;18.30;;
71080;SDS011;58740;50.672;18.690;2023-10-19T04:15:44;35.00;;;18.70;;
71080;SDS011;58740;50.672;18.690;2023-10-19T04:18:20;31.70;;;17.30;;
71080;SDS011;58740;50.672;18.690;2023-10-19T04:20:55;35.20;;;17.70;;
71080;SDS011;58740;50.672;18.690;2023-10-19T04:23:29;36.40;;;18.70;;
71080;SDS011;58740;50.672;18.690;2023-10-19T04:26:05;34.10;;;18.20;;
71080;SDS011;58740;50.672;18.690;2023-10-19T04:28:42;32.80;;;17.20;;
71080;SDS011;58740;50.672;18.690;2023-10-19T04:31:21;37.30;;;19.10;;
71080;SDS011;58740;50.672;18.690;2023-10-19T04:33:54;35.20;;;19.70;;
71080;SDS011;58740;50.672;18.690;2023-10-19T04:36:28;35.20;;;18.90;;
71080;SDS011;58740;50.672;18.690;2023-10-19T04:39:01;35.70;;;20.10;;
71080;SDS011;58740;50.672;18.690;2023-10-19T04:41:34;35.20;;;19.80;;
71080;SDS011;58740;50.672;18.690;2023-10-19T04:44:08;37.20;;;19.10;;
71080;SDS011;58740;50.672;18.690;2023-10-19T04:46:41;38.50;;;19.40;;
71080;SDS011;58740;50.672;18.690;2023-10-19T04:49:15;36.40;;;19.40;;
71080;SDS011;58740;50.672;18.690;2023-10-19T04:51:49;33.10;;;18.00;;
71080;SDS011;58740;50.672;18.690;2023-10-19T04:54:22;32.10;;;16.50;;
71080;SDS011;58740;50.672;18.690;2023-10-19T04:56:55;34.50;;;16.90;;
71080;SDS011;58740;50.672;18.690;2023-10-19T04:59:30;31.60;;;16.60;;
71080;SDS011;58740;50.672;18.690;2023-10-19T05:02:04;33.30;;;17.40;;
71080;SDS011;58740;50.672;18.690;2023-10-19T05:04:37;35.40;;;17.90;;
71080;SDS011;58740;50.672;18.690;2023-10-19T05:07:11;31.10;;;17.00;;
71080;SDS011;58740;50.672;18.690;2023-10-19T05:09:47;32.90;;;15.60;;
71080;SDS011;58740;50.672;18.690;2023-10-19T05:12:20;33.30;;;17.70;;
71080;SDS011;58740;50.672;18.690;2023-10-19T05:14:53;35.20;;;17.70;;
71080;SDS011;58740;50.672;18.690;2023-10-19T05:17:27;29.90;;;16.20;;
71080;SDS011;58740;50.672;18.690;2023-10-19T05:20:00;34.30;;;17.80;;
71080;SDS011;58740;50.672;18.690;2023-10-19T05:22:36;32.60;;;16.80;;
71080;SDS011;58740;50.672;18.690;2023-10-19T05:25:09;34.30;;;16.40;;
71080;SDS011;58740;50.672;18.690;2023-10-19T05:27:43;32.60;;;17.30;;
71080;SDS011;58740;50.672;18.690;2023-10-19T05:30:17;31.40;;;18.70;;
71080;SDS011;58740;50.672;18.690;2023-10-19T05:32:53;30.70;;;16.70;;
71080;SDS011;58740;50.672;18.690;2023-10-19T05:35:28;38.00;;;19.80;;
71080;SDS011;58740;50.672;18.690;2023-10-19T05:38:05;32.60;;;18.20;;
71080;SDS011;58740;50.672;18.690;2023-10-19T05:40:39;37.60;;;19.10;;
71080;SDS011;58740;50.672;18.690;2023-10-19T05:43:13;34.60;;;18.90;;
71080;SDS011;58740;50.672;18.690;2023-10-19T05:45:47;36.80;;;18.10;;
71080;SDS011;58740;50.672;18.690;2023-10-19T05:48:22;32.40;;;16.80;;
71080;SDS011;58740;50.672;18.690;2023-10-19T05:50:55;35.00;;;19.30;;
71080;SDS011;58740;50.672;18.690;2023-10-19T05:53:32;34.40;;;19.30;;
71080;SDS011;58740;50.672;18.690;2023-10-19T05:56:06;31.10;;;16.40;;
71080;SDS011;58740;50.672;18.690;2023-10-19T05:58:39;36.00;;;18.70;;
71080;SDS011;58740;50.672;18.690;2023-10-19T06:01:12;37.90;;;18.10;;
71080;SDS011;58740;50.672;18.690;2023-10-19T06:03:46;34.10;;;18.00;;
71080;SDS011;58740;50.672;18.690;2023-10-19T06:06:20;36.80;;;17.70;;
71080;SDS011;58740;50.672;18.690;2023-10-19T06:08:53;36.30;;;17.10;;
71080;SDS011;58740;50.672;18.690;2023-10-19T06:11:32;34.40;;;17.30;;
71080;SDS011;58740;50.672;18.690;2023-10-19T06:14:07;37.70;;;18.90;;
71080;SDS011;58740;50.672;18.690;2023-10-19T06:16:41;38.50;;;19.20;;
71080;SDS011;58740;50.672;18.690;2023-10-19T06:19:15;33.90;;;18.80;;
71080;SDS011;58740;50.672;18.690;2023-10-19T06:21:48;35.10;;;17.90;;
71080;SDS011;58740;50.672;18.690;2023-10-19T06:24:23;35.10;;;18.00;;
71080;SDS011;58740;50.672;18.690;2023-10-19T06:26:56;36.50;;;18.30;;
71080;SDS011;58740;50.672;18.690;2023-10-19T06:29:29;43.20;;;19.70;;
71080;SDS011;58740;50.672;18.690;2023-10-19T06:32:02;35.50;;;18.00;;
71080;SDS011;58740;50.672;18.690;2023-10-19T06:34:36;32.90;;;17.40;;
71080;SDS011;58740;50.672;18.690;2023-10-19T06:37:10;30.90;;;14.80;;
71080;SDS011;58740;50.672;18.690;2023-10-19T06:39:43;30.20;;;15.40;;
71080;SDS011;58740;50.672;18.690;2023-10-19T06:42:16;30.60;;;15.00;;
71080;SDS011;58740;50.672;18.690;2023-10-19T06:44:50;28.50;;;13.90;;
71080;SDS011;58740;50.672;18.690;2023-10-19T06:47:27;30.30;;;14.50;;
71080;SDS011;58740;50.672;18.690;2023-10-19T06:50:01;30.00;;;16.40;;
71080;SDS011;58740;50.672;18.690;2023-10-19T06:52:35;42.50;;;18.60;;
71080;SDS011;58740;50.672;18.690;2023-10-19T06:55:10;35.90;;;14.90;;
71080;SDS011;58740;50.672;18.690;2023-10-19T06:57:46;30.10;;;15.60;;
71080;SDS011;58740;50.672;18.690;2023-10-19T07:00:21;30.40;;;15.00;;
71080;SDS011;58740;50.672;18.690;2023-10-19T07:02:58;29.10;;;13.00;;
71080;SDS011;58740;50.672;18.690;2023-10-19T07:05:33;32.00;;;15.50;;
71080;SDS011;58740;50.672;18.690;2023-10-19T07:08:07;38.80;;;15.00;;
71080;SDS011;58740;50.672;18.690;2023-10-19T07:10:40;36.00;;;15.90;;
71080;SDS011;58740;50.672;18.690;2023-10-19T07:13:14;33.10;;;16.20;;
71080;SDS011;58740;50.672;18.690;2023-10-19T07:15:48;29.30;;;15.20;;
71080;SDS011;58740;50.672;18.690;2023-10-19T07:18:22;29.20;;;13.90;;
71080;SDS011;58740;50.672;18.690;2023-10-19T07:20:55;26.20;;;12.00;;
71080;SDS011;58740;50.672;18.690;2023-10-19T07:23:34;23.90;;;12.50;;
71080;SDS011;58740;50.672;18.690;2023-10-19T07:26:08;25.80;;;12.30;;
71080;SDS011;58740;50.672;18.690;2023-10-19T07:28:44;31.60;;;14.20;;
71080;SDS011;58740;50.672;18.690;2023-10-19T07:31:18;29.30;;;13.10;;
71080;SDS011;58740;50.672;18.690;2023-10-19T07:33:52;32.10;;;15.00;;
71080;SDS011;58740;50.672;18.690;2023-10-19T07:36:27;36.20;;;15.00;;
71080;SDS011;58740;50.672;18.690;2023-10-19T07:39:01;19.30;;;10.10;;
71080;SDS011;58740;50.672;18.690;2023-10-19T07:41:35;25.30;;;10.50;;
71080;SDS011;58740;50.672;18.690;2023-10-19T07:44:08;24.10;;;10.70;;
71080;SDS011;58740;50.672;18.690;2023-10-19T07:46:42;22.60;;;11.40;;
71080;SDS011;58740;50.672;18.690;2023-10-19T07:49:15;20.20;;;9.90;;
71080;SDS011;58740;50.672;18.690;2023-10-19T07:51:50;21.40;;;11.40;;
71080;SDS011;58740;50.672;18.690;2023-10-19T07:54:25;32.50;;;13.70;;
71080;SDS011;58740;50.672;18.690;2023-10-19T07:56:59;26.20;;;11.40;;
71080;SDS011;58740;50.672;18.690;2023-10-19T07:59:36;30.60;;;11.80;;
71080;SDS011;58740;50.672;18.690;2023-10-19T08:02:09;30.60;;;14.30;;
71080;SDS011;58740;50.672;18.690;2023-10-19T08:04:43;29.60;;;13.00;;
71080;SDS011;58740;50.672;18.690;2023-10-19T08:07:17;31.20;;;13.20;;
71080;SDS011;58740;50.672;18.690;2023-10-19T08:09:51;33.10;;;13.50;;
71080;SDS011;58740;50.672;18.690;2023-10-19T08:12:25;28.10;;;13.90;;
71080;SDS011;58740;50.672;18.690;2023-10-19T08:14:58;32.70;;;13.40;;
71080;SDS011;58740;50.672;18.690;2023-10-19T08:17:32;31.00;;;14.10;;
71080;SDS011;58740;50.672;18.690;2023-10-19T08:20:07;35.10;;;14.20;;
71080;SDS011;58740;50.672;18.690;2023-10-19T08:22:46;27.00;;;13.10;;
71080;SDS011;58740;50.672;18.690;2023-10-19T08:25:20;32.30;;;13.70;;
71080;SDS011;58740;50.672;18.690;2023-10-19T08:27:55;28.30;;;13.70;;
71080;SDS011;58740;50.672;18.690;2023-10-19T08:30:29;31.20;;;14.40;;
71080;SDS011;58740;50.672;18.690;2023-10-19T08:33:04;31.50;;;14.70;;
71080;SDS011;58740;50.672;18.690;2023-10-19T08:35:37;32.30;;;13.00;;
71080;SDS011;58740;50.672;18.690;2023-10-19T08:38:10;31.30;;;14.00;;
71080;SDS011;58740;50.672;18.690;2023-10-19T08:40:44;26.60;;;12.70;;
71080;SDS011;58740;50.672;18.690;2023-10-19T08:43:17;27.80;;;12.90;;
71080;SDS011;58740;50.672;18.690;2023-10-19T08:45:52;35.90;;;14.40;;
71080;SDS011;58740;50.672;18.690;2023-10-19T08:48:27;31.30;;;14.10;;
71080;SDS011;58740;50.672;18.690;2023-10-19T08:51:08;33.30;;;14.20;;
71080;SDS011;58740;50.672;18.690;2023-10-19T08:53:42;31.60;;;15.50;;
71080;SDS011;58740;50.672;18.690;2023-10-19T08:56:17;31.90;;;15.30;;
71080;SDS011;58740;50.672;18.690;2023-10-19T08:58:54;29.80;;;14.80;;
71080;SDS011;58740;50.672;18.690;2023-10-19T09:01:28;33.20;;;15.20;;
71080;SDS011;58740;50.672;18.690;2023-10-19T09:04:03;35.20;;;16.10;;
71080;SDS011;58740;50.672;18.690;2023-10-19T09:06:37;35.30;;;18.40;;
71080;SDS011;58740;50.672;18.690;2023-10-19T09:09:13;40.70;;;18.40;;
71080;SDS011;58740;50.672;18.690;2023-10-19T09:11:50;41.10;;;18.80;;
71080;SDS011;58740;50.672;18.690;2023-10-19T09:14:33;41.80;;;18.30;;
71080;SDS011;58740;50.672;18.690;2023-10-19T09:17:11;32.00;;;16.00;;
71080;SDS011;58740;50.672;18.690;2023-10-19T09:19:46;34.60;;;15.40;;
71080;SDS011;58740;50.672;18.690;2023-10-19T09:22:19;34.60;;;15.60;;
71080;SDS011;58740;50.672;18.690;2023-10-19T09:24:54;33.90;;;16.70;;
71080;SDS011;58740;50.672;18.690;2023-10-19T09:27:28;40.40;;;18.00;;
71080;SDS011;58740;50.672;18.690;2023-10-19T09:30:02;34.40;;;17.20;;
71080;SDS011;58740;50.672;18.690;2023-10-19T09:32:40;48.70;;;21.10;;
71080;SDS011;58740;50.672;18.690;2023-10-19T09:35:14;43.10;;;18.60;;
71080;SDS011;58740;50.672;18.690;2023-10-19T09:37:49;38.70;;;16.60;;
71080;SDS011;58740;50.672;18.690;2023-10-19T09:40:24;37.30;;;15.40;;
71080;SDS011;58740;50.672;18.690;2023-10-19T09:43:00;29.90;;;15.20;;
71080;SDS011;58740;50.672;18.690;2023-10-19T09:45:42;32.40;;;13.60;;
71080;SDS011;58740;50.672;18.690;2023-10-19T09:48:22;35.00;;;16.30;;
71080;SDS011;58740;50.672;18.690;2023-10-19T09:50:57;32.10;;;16.30;;
71080;SDS011;58740;50.672;18.690;2023-10-19T09:53:31;32.70;;;15.20;;
71080;SDS011;58740;50.672;18.690;2023-10-19T09:56:08;29.40;;;13.40;;
71080;SDS011;58740;50.672;18.690;2023-10-19T09:58:50;37.30;;;17.50;;
71080;SDS011;58740;50.672;18.690;2023-10-19T10:01:25;29.30;;;16.10;;
71080;SDS011;58740;50.672;18.690;2023-10-19T10:04:00;34.50;;;16.30;;
71080;SDS011;58740;50.672;18.690;2023-10-19T10:09:40;35.80;;;17.70;;
71080;SDS011;58740;50.672;18.690;2023-10-19T10:12:20;34.40;;;15.70;;
71080;SDS011;58740;50.672;18.690;2023-10-19T10:15:02;33.60;;;15.90;;
71080;SDS011;58740;50.672;18.690;2023-10-19T10:17:39;34.30;;;16.00;;
71080;SDS011;58740;50.672;18.690;2023-10-19T10:20:33;39.90;;;18.30;;
71080;SDS011;58740;50.672;18.690;2023-10-19T10:23:19;32.80;;;16.50;;
71080;SDS011;58740;50.672;18.690;2023-10-19T10:25:58;33.90;;;16.30;;
71080;SDS011;58740;50.672;18.690;2023-10-19T10:28:31;30.90;;;14.60;;
71080;SDS011;58740;50.672;18.690;2023-10-19T10:31:18;34.10;;;15.80;;
71080;SDS011;58740;50.672;18.690;2023-10-19T10:33:54;29.40;;;15.50;;
71080;SDS011;58740;50.672;18.690;2023-10-19T10:36:27;35.00;;;17.30;;
71080;SDS011;58740;50.672;18.690;2023-10-19T10:39:33;31.20;;;15.00;;
71080;SDS011;58740;50.672;18.690;2023-10-19T10:42:09;32.80;;;15.80;;
71080;SDS011;58740;50.672;18.690;2023-10-19T10:44:43;33.30;;;15.80;;
71080;SDS011;58740;50.672;18.690;2023-10-19T10:47:19;25.70;;;13.80;;
71080;SDS011;58740;50.672;18.690;2023-10-19T10:49:56;30.40;;;15.10;;
71080;SDS011;58740;50.672;18.690;2023-10-19T10:52:32;33.20;;;18.10;;
71080;SDS011;58740;50.672;18.690;2023-10-19T10:55:11;31.30;;;17.40;;
71080;SDS011;58740;50.672;18.690;2023-10-19T10:57:45;32.00;;;16.90;;
71080;SDS011;58740;50.672;18.690;2023-10-19T11:00:22;36.60;;;16.50;;
71080;SDS011;58740;50.672;18.690;2023-10-19T11:03:04;27.30;;;14.70;;
71080;SDS011;58740;50.672;18.690;2023-10-19T11:05:40;33.40;;;16.60;;
71080;SDS011;58740;50.672;18.690;2023-10-19T11:08:17;36.80;;;15.10;;
71080;SDS011;58740;50.672;18.690;2023-10-19T11:10:51;41.90;;;19.00;;
71080;SDS011;58740;50.672;18.690;2023-10-19T11:13:25;38.90;;;19.20;;
71080;SDS011;58740;50.672;18.690;2023-10-19T11:15:59;37.70;;;16.70;;
71080;SDS011;58740;50.672;18.690;2023-10-19T11:18:37;34.50;;;19.10;;
71080;SDS011;58740;50.672;18.690;2023-10-19T11:21:12;32.90;;;17.10;;
71080;SDS011;58740;50.672;18.690;2023-10-19T11:23:47;30.60;;;15.90;;
71080;SDS011;58740;50.672;18.690;2023-10-19T11:26:24;32.60;;;16.70;;
71080;SDS011;58740;50.672;18.690;2023-10-19T11:29:00;35.40;;;19.40;;
71080;SDS011;58740;50.672;18.690;2023-10-19T11:31:35;34.80;;;18.30;;
71080;SDS011;58740;50.672;18.690;2023-10-19T11:34:10;35.50;;;17.60;;
71080;SDS011;58740;50.672;18.690;2023-10-19T11:36:53;38.50;;;20.50;;
71080;SDS011;58740;50.672;18.690;2023-10-19T11:39:30;33.60;;;18.00;;
71080;SDS011;58740;50.672;18.690;2023-10-19T11:42:04;33.60;;;17.30;;
71080;SDS011;58740;50.672;18.690;2023-10-19T11:44:37;36.80;;;17.40;;
71080;SDS011;58740;50.672;18.690;2023-10-19T11:47:11;30.20;;;16.60;;
71080;SDS011;58740;50.672;18.690;2023-10-19T11:49:45;38.50;;;17.30;;
71080;SDS011;58740;50.672;18.690;2023-10-19T11:52:19;40.20;;;18.60;;
71080;SDS011;58740;50.672;18.690;2023-10-19T11:54:53;36.50;;;17.20;;
71080;SDS011;58740;50.672;18.690;2023-10-19T11:57:27;39.20;;;21.10;;
71080;SDS011;58740;50.672;18.690;2023-10-19T12:00:04;37.90;;;19.80;;
71080;SDS011;58740;50.672;18.690;2023-10-19T12:02:40;39.50;;;19.90;;
71080;SDS011;58740;50.672;18.690;2023-10-19T12:05:13;38.70;;;18.90;;
71080;SDS011;58740;50.672;18.690;2023-10-19T12:07:47;33.80;;;19.50;;
71080;SDS011;58740;50.672;18.690;2023-10-19T12:10:22;34.60;;;19.30;;
71080;SDS011;58740;50.672;18.690;2023-10-19T12:13:04;35.30;;;19.60;;
71080;SDS011;58740;50.672;18.690;2023-10-19T12:15:38;42.00;;;19.20;;
71080;SDS011;58740;50.672;18.690;2023-10-19T12:18:11;36.60;;;19.20;;
71080;SDS011;58740;50.672;18.690;2023-10-19T12:20:45;33.40;;;19.30;;
71080;SDS011;58740;50.672;18.690;2023-10-19T12:23:19;36.60;;;19.10;;
71080;SDS011;58740;50.672;18.690;2023-10-19T12:25:53;36.10;;;18.50;;
71080;SDS011;58740;50.672;18.690;2023-10-19T12:28:27;37.70;;;19.30;;
71080;SDS011;58740;50.672;18.690;2023-10-19T12:31:01;35.50;;;21.20;;
71080;SDS011;58740;50.672;18.690;2023-10-19T12:33:36;41.40;;;20.40;;
71080;SDS011;58740;50.672;18.690;2023-10-19T12:36:12;40.30;;;21.10;;
71080;SDS011;58740;50.672;18.690;2023-10-19T12:39:02;40.40;;;23.00;;
71080;SDS011;58740;50.672;18.690;2023-10-19T12:41:40;39.20;;;22.50;;
71080;SDS011;58740;50.672;18.690;2023-10-19T12:44:13;42.60;;;23.50;;
71080;SDS011;58740;50.672;18.690;2023-10-19T12:46:47;45.90;;;27.30;;
71080;SDS011;58740;50.672;18.690;2023-10-19T12:49:20;49.10;;;26.70;;
71080;SDS011;58740;50.672;18.690;2023-10-19T12:51:56;52.60;;;25.80;;
71080;SDS011;58740;50.672;18.690;2023-10-19T12:54:31;54.90;;;29.30;;
71080;SDS011;58740;50.672;18.690;2023-10-19T12:57:05;51.80;;;27.90;;
71080;SDS011;58740;50.672;18.690;2023-10-19T12:59:39;53.30;;;27.80;;
71080;SDS011;58740;50.672;18.690;2023-10-19T13:02:14;44.80;;;26.80;;
71080;SDS011;58740;50.672;18.690;2023-10-19T13:04:49;40.10;;;25.30;;
71080;SDS011;58740;50.672;18.690;2023-10-19T13:07:22;38.60;;;24.40;;
71080;SDS011;58740;50.672;18.690;2023-10-19T13:09:56;38.00;;;23.90;;
71080;SDS011;58740;50.672;18.690;2023-10-19T13:12:30;39.60;;;23.80;;
71080;SDS011;58740;50.672;18.690;2023-10-19T13:15:04;42.70;;;24.60;;
71080;SDS011;58740;50.672;18.690;2023-10-19T13:17:43;48.90;;;26.10;;
71080;SDS011;58740;50.672;18.690;2023-10-19T13:20:19;46.10;;;25.10;;
71080;SDS011;58740;50.672;18.690;2023-10-19T13:22:53;47.60;;;27.40;;
71080;SDS011;58740;50.672;18.690;2023-10-19T13:25:27;44.30;;;24.60;;
71080;SDS011;58740;50.672;18.690;2023-10-19T13:28:13;40.00;;;23.60;;
71080;SDS011;58740;50.672;18.690;2023-10-19T13:30:49;44.40;;;24.60;;
71080;SDS011;58740;50.672;18.690;2023-10-19T13:33:24;43.30;;;24.50;;
71080;SDS011;58740;50.672;18.690;2023-10-19T13:35:58;51.20;;;26.70;;
71080;SDS011;58740;50.672;18.690;2023-10-19T13:38:33;46.60;;;25.40;;
71080;SDS011;58740;50.672;18.690;2023-10-19T13:41:06;44.50;;;25.90;;
71080;SDS011;58740;50.672;18.690;2023-10-19T13:43:41;41.00;;;23.70;;
71080;SDS011;58740;50.672;18.690;2023-10-19T13:46:15;39.40;;;23.70;;
71080;SDS011;58740;50.672;18.690;2023-10-19T13:48:49;41.60;;;25.00;;
71080;SDS011;58740;50.672;18.690;2023-10-19T13:51:22;47.80;;;27.10;;
71080;SDS011;58740;50.672;18.690;2023-10-19T13:53:56;40.50;;;23.60;;
71080;SDS011;58740;50.672;18.690;2023-10-19T13:56:29;42.30;;;22.80;;
71080;SDS011;58740;50.672;18.690;2023-10-19T13:59:04;42.20;;;23.30;;
71080;SDS011;58740;50.672;18.690;2023-10-19T14:01:38;41.40;;;23.20;;
71080;SDS011;58740;50.672;18.690;2023-10-19T14:04:11;40.80;;;22.70;;
71080;SDS011;58740;50.672;18.690;2023-10-19T14:06:45;37.20;;;23.90;;
71080;SDS011;58740;50.672;18.690;2023-10-19T14:09:20;38.60;;;23.10;;
71080;SDS011;58740;50.672;18.690;2023-10-19T14:11:53;38.80;;;21.60;;
71080;SDS011;58740;50.672;18.690;2023-10-19T14:14:27;42.20;;;23.50;;
71080;SDS011;58740;50.672;18.690;2023-10-19T14:17:02;37.50;;;22.50;;
71080;SDS011;58740;50.672;18.690;2023-10-19T14:19:40;40.40;;;22.30;;
71080;SDS011;58740;50.672;18.690;2023-10-19T14:22:15;40.50;;;20.90;;
71080;SDS011;58740;50.672;18.690;2023-10-19T14:24:49;43.20;;;22.00;;
71080;SDS011;58740;50.672;18.690;2023-10-19T14:27:25;39.50;;;21.50;;
71080;SDS011;58740;50.672;18.690;2023-10-19T14:29:58;41.40;;;21.80;;
71080;SDS011;58740;50.672;18.690;2023-10-19T14:32:32;47.10;;;24.20;;
71080;SDS011;58740;50.672;18.690;2023-10-19T14:35:07;44.60;;;22.40;;
71080;SDS011;58740;50.672;18.690;2023-10-19T14:37:43;47.90;;;24.70;;
71080;SDS011;58740;50.672;18.690;2023-10-19T14:40:19;47.30;;;23.80;;
71080;SDS011;58740;50.672;18.690;2023-10-19T14:42:55;43.50;;;26.00;;
71080;SDS011;58740;50.672;18.690;2023-10-19T14:45:29;43.40;;;24.50;;
71080;SDS011;58740;50.672;18.690;2023-10-19T14:48:03;40.50;;;25.10;;
71080;SDS011;58740;50.672;18.690;2023-10-19T14:50:39;47.50;;;25.10;;
71080;SDS011;58740;50.672;18.690;2023-10-19T14:53:14;44.10;;;23.60;;
71080;SDS011;58740;50.672;18.690;2023-10-19T14:55:48;41.20;;;24.20;;
71080;SDS011;58740;50.672;18.690;2023-10-19T14:58:21;44.80;;;25.70;;